Time;durP1;ratioP1;P1;durP2;ratioP2;P2;SDS_P1;SDS_P2;PMS_P1;PMS_P2;Temp;Humidity;BMP_temperature;BMP_pressure;BME280_temperature;BME280_humidity;BME280_pressure;Samples;Min_cycle;Max_cycle;Signal;HPM_P1;HPM_P2
2022/06/17 00:00:54;;;;;;;8.90;5.97;;;14.20;99.90;;;;;;5054201;28;20106;-77
2022/06/17 00:03:21;;;;;;;7.63;5.53;;;14.10;99.90;;;;;;5048612;28;20048;-77
2022/06/17 00:05:47;;;;;;;8.23;5.78;;;14.10;99.90;;;;;;5035832;28;20088;-77
2022/06/17 00:08:18;;;;;;;8.65;6.35;;;14.10;99.90;;;;;;5031863;28;20045;-77
2022/06/17 00:10:44;;;;;;;9.68;5.43;;;14.10;99.90;;;;;;5040414;28;20563;-77
2022/06/17 00:13:17;;;;;;;9.35;6.18;;;14.00;99.90;;;;;;5046416;28;20049;-77
2022/06/17 00:15:45;;;;;;;10.00;6.53;;;14.20;99.90;;;;;;5055991;28;20052;-77
2022/06/17 00:18:15;;;;;;;9.43;6.05;;;14.00;99.90;;;;;;5025490;28;20061;-77
2022/06/17 00:20:41;;;;;;;8.48;5.63;;;13.90;99.90;;;;;;5041907;28;20044;-77
2022/06/17 00:23:15;;;;;;;10.98;6.53;;;13.90;99.90;;;;;;5044297;28;20119;-77
2022/06/17 00:25:45;;;;;;;10.18;6.35;;;13.90;99.90;;;;;;5037014;28;20526;-77
2022/06/17 00:28:29;;;;;;;8.07;5.95;;;13.90;99.90;;;;;;5030445;28;20060;-77
2022/06/17 00:30:55;;;;;;;10.23;5.78;;;13.90;99.90;;;;;;5035207;28;20055;-78
2022/06/17 00:33:21;;;;;;;9.30;6.13;;;13.90;99.90;;;;;;5037214;28;20049;-78
2022/06/17 00:35:53;;;;;;;8.80;6.13;;;13.90;99.90;;;;;;5049156;28;20037;-77
2022/06/17 00:38:29;;;;;;;8.73;6.10;;;13.90;99.90;;;;;;5034513;28;20041;-77
2022/06/17 00:40:56;;;;;;;12.38;6.07;;;14.00;99.90;;;;;;5060086;28;20049;-77
2022/06/17 00:43:31;;;;;;;9.10;6.10;;;14.00;99.90;;;;;;5039807;28;20048;-77
2022/06/17 00:46:05;;;;;;;;;;;13.90;99.90;;;;;;5042783;28;20065;-77
2022/06/17 00:48:37;;;;;;;8.57;6.30;;;13.90;99.90;;;;;;5018907;28;19976;-77
2022/06/17 00:51:16;;;;;;;8.00;5.93;;;13.80;99.90;;;;;;5021324;28;20154;-77
2022/06/17 00:53:49;;;;;;;10.70;6.18;;;13.80;99.90;;;;;;5053651;28;20056;-77
2022/06/17 00:56:28;;;;;;;10.88;5.88;;;13.80;99.90;;;;;;5036612;28;20087;-77
2022/06/17 00:58:56;;;;;;;8.70;5.95;;;13.70;99.90;;;;;;5037756;28;20483;-78
2022/06/17 01:01:23;;;;;;;9.68;6.00;;;13.70;99.90;;;;;;5023687;28;20045;-77
2022/06/17 01:03:52;;;;;;;10.10;6.60;;;13.70;99.90;;;;;;5051025;28;20045;-77
2022/06/17 01:06:21;;;;;;;9.15;5.90;;;13.70;99.90;;;;;;5036159;28;20053;-77
2022/06/17 01:11:39;;;;;;;10.05;5.65;;;13.70;99.90;;;;;;5050523;28;20167;-77
2022/06/17 01:14:06;;;;;;;10.18;6.15;;;13.70;99.90;;;;;;5035282;28;20857;-77
2022/06/17 01:16:36;;;;;;;10.52;6.60;;;13.70;99.90;;;;;;5053493;28;20037;-77
2022/06/17 01:19:09;;;;;;;9.07;6.20;;;13.70;99.90;;;;;;5038874;28;20083;-77
2022/06/17 01:21:45;;;;;;;8.77;6.40;;;13.70;99.90;;;;;;5037865;28;20677;-77
2022/06/17 01:24:15;;;;;;;10.52;5.68;;;13.60;99.90;;;;;;5041296;28;20049;-77
2022/06/17 01:26:40;;;;;;;9.18;6.03;;;13.70;99.90;;;;;;5041350;28;20052;-77
2022/06/17 01:29:13;;;;;;;10.25;6.03;;;13.60;99.90;;;;;;5040904;28;20052;-77
2022/06/17 01:31:47;;;;;;;9.75;5.80;;;13.60;99.90;;;;;;5042549;28;20060;-77
2022/06/17 01:34:13;;;;;;;9.15;5.97;;;13.60;99.90;;;;;;5033027;28;20120;-77
2022/06/17 01:36:40;;;;;;;10.60;6.28;;;13.50;99.90;;;;;;5025528;28;20696;-77
2022/06/17 01:39:06;;;;;;;7.63;5.65;;;13.60;99.90;;;;;;5019141;28;20061;-77
2022/06/17 01:41:34;;;;;;;9.27;6.15;;;13.50;99.90;;;;;;5022726;28;20041;-77
2022/06/17 01:44:22;;;;;;;8.32;5.47;;;13.50;99.90;;;;;;5022671;28;20102;-77
2022/06/17 01:46:52;;;;;;;12.30;6.10;;;13.50;99.90;;;;;;5027226;28;20076;-77
2022/06/17 01:49:24;;;;;;;9.52;5.47;;;13.50;99.90;;;;;;5032188;28;20056;-77
2022/06/17 01:52:03;;;;;;;7.85;5.55;;;13.40;99.90;;;;;;5036829;28;20048;-77
2022/06/17 01:54:41;;;;;;;8.05;5.50;;;13.40;99.90;;;;;;5029335;28;20084;-77
2022/06/17 01:57:10;;;;;;;9.75;5.20;;;13.40;99.90;;;;;;5025725;28;20048;-77
2022/06/17 01:59:42;;;;;;;9.43;5.03;;;13.40;99.90;;;;;;5031804;28;20055;-77
2022/06/17 02:02:10;;;;;;;8.40;5.60;;;13.40;99.90;;;;;;5025050;28;20045;-77
2022/06/17 02:04:39;;;;;;;9.18;6.03;;;13.40;99.90;;;;;;5048551;28;20056;-77
2022/06/17 02:07:19;;;;;;;8.50;5.13;;;13.40;99.90;;;;;;5045087;28;20045;-77
2022/06/17 02:09:45;;;;;;;9.95;5.72;;;13.40;99.90;;;;;;5045795;28;20036;-77
2022/06/17 02:12:13;;;;;;;8.35;5.20;;;13.40;99.90;;;;;;5047200;28;20781;-77
2022/06/17 02:14:39;;;;;;;8.85;5.53;;;13.40;99.90;;;;;;5033030;28;20044;-77
2022/06/17 02:17:04;;;;;;;8.82;5.88;;;13.40;99.90;;;;;;5051073;28;20806;-76
2022/06/17 02:19:35;;;;;;;7.57;4.60;;;13.40;99.90;;;;;;5040057;28;20139;-77
2022/06/17 02:22:12;;;;;;;8.55;5.65;;;13.40;99.90;;;;;;5040255;28;20044;-77
2022/06/17 02:24:40;;;;;;;7.75;4.75;;;13.40;99.90;;;;;;5057978;28;20646;-77
2022/06/17 02:27:09;;;;;;;8.60;4.90;;;13.40;99.90;;;;;;5052088;28;20547;-77
2022/06/17 02:29:38;;;;;;;8.07;4.60;;;13.40;99.90;;;;;;5048075;28;20800;-77
2022/06/17 02:32:07;;;;;;;8.50;5.00;;;13.40;99.90;;;;;;5043365;28;20492;-76
2022/06/17 02:34:33;;;;;;;9.00;4.85;;;13.40;99.90;;;;;;5054331;28;20055;-77
2022/06/17 02:37:06;;;;;;;7.65;4.38;;;13.40;99.90;;;;;;5049229;28;20491;-77
2022/06/17 02:39:43;;;;;;;8.90;4.78;;;13.40;99.90;;;;;;5040344;28;20730;-77
2022/06/17 02:42:30;;;;;;;7.47;4.40;;;13.40;99.90;;;;;;5048714;28;20063;-77
2022/06/17 02:45:04;;;;;;;6.68;4.18;;;13.40;99.90;;;;;;5046056;28;20113;-77
2022/06/17 02:47:31;;;;;;;6.57;4.20;;;13.40;99.90;;;;;;5040808;28;20506;-77
2022/06/17 02:49:57;;;;;;;7.53;3.92;;;13.30;99.90;;;;;;5033315;28;20641;-77
2022/06/17 02:52:37;;;;;;;6.57;4.53;;;13.30;99.90;;;;;;5036743;28;20032;-77
2022/06/17 02:55:20;;;;;;;8.98;4.82;;;13.30;99.90;;;;;;5025858;28;20137;-77
2022/06/17 02:57:47;;;;;;;7.57;4.57;;;13.20;99.90;;;;;;5036285;28;20096;-77
2022/06/17 03:00:14;;;;;;;7.43;4.35;;;13.20;99.90;;;;;;5022555;28;20053;-77
2022/06/17 03:02:53;;;;;;;6.60;4.32;;;13.20;99.90;;;;;;5025384;28;20156;-77
2022/06/17 03:05:30;;;;;;;6.57;4.85;;;13.20;99.90;;;;;;5028391;28;20056;-77
2022/06/17 03:07:58;;;;;;;9.75;4.82;;;13.20;99.90;;;;;;5031494;28;20049;-77
2022/06/17 03:10:31;;;;;;;7.95;5.03;;;13.10;99.90;;;;;;5025233;28;20049;-77
2022/06/17 03:13:37;;;;;;;6.50;4.43;;;13.10;99.90;;;;;;5036987;28;20045;-77
2022/06/17 03:16:06;;;;;;;8.07;4.90;;;13.10;99.90;;;;;;5033893;28;20056;-77
2022/06/17 03:18:32;;;;;;;8.32;4.38;;;13.10;99.90;;;;;;5008704;28;20054;-77
2022/06/17 03:21:00;;;;;;;6.25;4.25;;;13.10;99.90;;;;;;5030981;28;20343;-77
2022/06/17 03:23:33;;;;;;;8.82;4.53;;;13.10;99.90;;;;;;5037073;28;20928;-77
2022/06/17 03:26:00;;;;;;;6.85;4.40;;;13.10;99.90;;;;;;5050498;28;20040;-77
2022/06/17 03:28:30;;;;;;;6.50;4.70;;;13.10;99.90;;;;;;5045122;28;20498;-77
2022/06/17 03:31:07;;;;;;;6.85;4.30;;;13.20;99.90;;;;;;5052343;28;20088;-77
2022/06/17 03:33:40;;;;;;;8.18;4.38;;;13.20;99.90;;;;;;5039899;28;20126;-77
2022/06/17 03:36:12;;;;;;;7.65;4.45;;;13.30;99.90;;;;;;5033544;28;20472;-77
2022/06/17 03:38:47;;;;;;;6.32;4.30;;;13.40;99.90;;;;;;5022094;28;20491;-77
2022/06/17 03:41:29;;;;;;;7.40;4.50;;;13.40;99.90;;;;;;5052491;28;20059;-78
2022/06/17 03:43:59;;;;;;;8.57;4.80;;;13.50;99.90;;;;;;5042870;28;20049;-77
2022/06/17 03:46:27;;;;;;;8.25;4.90;;;13.60;99.90;;;;;;5055304;28;20060;-77
2022/06/17 03:49:06;;;;;;;11.77;4.32;;;13.60;99.90;;;;;;5050140;28;20072;-77
2022/06/17 03:51:37;;;;;;;8.68;4.28;;;13.70;99.90;;;;;;5037671;28;20057;-77
2022/06/17 03:54:03;;;;;;;6.13;3.75;;;13.70;99.90;;;;;;5035816;28;20036;-77
2022/06/17 03:56:35;;;;;;;7.18;3.92;;;13.80;99.90;;;;;;5047394;28;20049;-77
2022/06/17 03:59:05;;;;;;;5.65;4.20;;;13.90;99.90;;;;;;5023479;28;20049;-77
2022/06/17 04:01:43;;;;;;;7.40;4.20;;;13.80;99.90;;;;;;5049819;28;20090;-77
2022/06/17 04:04:26;;;;;;;6.57;4.32;;;13.80;99.90;;;;;;5023177;28;20077;-77
2022/06/17 04:06:55;;;;;;;9.20;4.25;;;13.80;99.90;;;;;;5041895;28;20049;-77
2022/06/17 04:09:24;;;;;;;10.57;4.85;;;13.80;99.90;;;;;;5033573;28;20061;-77
2022/06/17 04:11:54;;;;;;;7.75;4.28;;;14.10;99.90;;;;;;5035838;28;20148;-77
2022/06/17 04:14:53;;;;;;;9.70;3.95;;;13.90;99.90;;;;;;5041833;28;20052;-75
2022/06/17 04:17:30;;;;;;;7.13;4.05;;;13.90;99.90;;;;;;5038328;28;20053;-78
2022/06/17 04:20:19;;;;;;;10.57;4.22;;;14.00;99.90;;;;;;5039491;28;20075;-78
2022/06/17 04:22:48;;;;;;;7.63;4.38;;;14.20;99.90;;;;;;5026716;28;20041;-77
2022/06/17 04:25:21;;;;;;;7.82;4.00;;;14.30;99.90;;;;;;5027922;28;20051;-77
2022/06/17 04:27:57;;;;;;;6.05;3.53;;;14.40;99.90;;;;;;5043089;28;20052;-77
2022/06/17 04:30:26;;;;;;;6.45;4.13;;;14.50;99.90;;;;;;5053029;28;20036;-77
2022/06/17 04:33:25;;;;;;;7.30;4.28;;;14.60;99.90;;;;;;5043562;28;20055;-78
2022/06/17 04:35:58;;;;;;;7.22;4.22;;;14.60;99.90;;;;;;5036011;28;20044;-78
2022/06/17 04:38:25;;;;;;;10.43;4.20;;;14.70;99.90;;;;;;5046015;28;20049;-78
2022/06/17 04:40:55;;;;;;;9.27;4.10;;;14.80;99.90;;;;;;5057284;28;20654;-77
2022/06/17 04:43:36;;;;;;;6.45;3.97;;;14.90;99.90;;;;;;5028271;28;20534;-77
2022/06/17 04:46:16;;;;;;;8.20;4.65;;;15.00;99.90;;;;;;5038633;28;20163;-76
2022/06/17 04:48:42;;;;;;;8.25;4.30;;;15.00;99.90;;;;;;5038694;28;20083;-76
2022/06/17 04:51:09;;;;;;;9.38;4.72;;;15.10;99.90;;;;;;5047030;28;20048;-77
2022/06/17 04:53:38;;;;;;;7.68;5.05;;;15.10;99.90;;;;;;5042943;28;20060;-77
2022/06/17 04:56:06;;;;;;;8.75;4.53;;;15.20;99.90;;;;;;5043001;28;20922;-78
2022/06/17 04:58:32;;;;;;;7.88;4.57;;;15.20;99.90;;;;;;5043039;28;20052;-77
2022/06/17 05:00:58;;;;;;;10.25;4.68;;;15.20;99.90;;;;;;5022352;28;20056;-78
2022/06/17 05:03:27;;;;;;;8.63;5.15;;;15.20;99.90;;;;;;5045473;28;20703;-78
2022/06/17 05:05:53;;;;;;;9.15;5.65;;;15.20;99.90;;;;;;5059004;28;20093;-77
2022/06/17 05:08:32;;;;;;;8.82;5.32;;;15.20;99.90;;;;;;5048923;28;20041;-84
2022/06/17 05:11:03;;;;;;;7.75;5.18;;;15.20;99.90;;;;;;5035823;28;20773;-80
2022/06/17 05:13:37;;;;;;;8.60;5.00;;;15.50;99.90;;;;;;5056574;28;20067;-80
2022/06/17 05:16:03;;;;;;;10.20;5.85;;;15.50;99.90;;;;;;5045143;28;20152;-81
2022/06/17 05:18:29;;;;;;;9.93;5.55;;;15.30;99.90;;;;;;5058952;28;20055;-80
2022/06/17 05:20:54;;;;;;;13.18;6.53;;;15.30;99.90;;;;;;5059575;28;20494;-80
2022/06/17 05:23:20;;;;;;;9.50;5.90;;;15.40;99.90;;;;;;5036093;28;20048;-81
2022/06/17 05:25:48;;;;;;;10.35;5.68;;;15.40;99.90;;;;;;5041671;28;20041;-84
2022/06/17 05:28:17;;;;;;;9.05;6.03;;;15.40;99.90;;;;;;5035507;28;20048;-82
2022/06/17 05:30:51;;;;;;;10.25;5.90;;;15.50;99.90;;;;;;5043605;28;20049;-83
2022/06/17 05:33:18;;;;;;;9.93;6.03;;;15.50;99.90;;;;;;5040584;28;20049;-83
2022/06/17 05:35:44;;;;;;;10.63;6.38;;;15.50;99.90;;;;;;5033429;28;20046;-88
2022/06/17 05:38:10;;;;;;;12.35;5.80;;;15.50;99.90;;;;;;5027137;28;20041;-87
2022/06/17 05:40:37;;;;;;;10.43;5.63;;;15.60;99.90;;;;;;5031169;28;20480;-77
2022/06/17 05:43:03;;;;;;;9.80;6.22;;;15.60;99.90;;;;;;5048368;28;20044;-77
2022/06/17 05:45:29;;;;;;;10.57;5.72;;;15.70;99.90;;;;;;5058646;28;20160;-81
2022/06/17 05:47:54;;;;;;;10.68;6.00;;;15.70;99.90;;;;;;5040484;28;20049;-81
2022/06/17 05:50:23;;;;;;;9.20;5.95;;;15.70;99.90;;;;;;5031477;28;20111;-77
2022/06/17 05:52:50;;;;;;;9.80;5.38;;;15.80;99.90;;;;;;5028120;28;20842;-76
2022/06/17 05:55:16;;;;;;;12.95;6.18;;;15.90;99.90;;;;;;5040057;28;20074;-78
2022/06/17 05:57:41;;;;;;;11.40;6.03;;;15.90;99.90;;;;;;5037468;28;20045;-77
2022/06/17 06:00:07;;;;;;;11.52;6.05;;;16.00;99.90;;;;;;5035192;28;20077;-76
2022/06/17 06:02:33;;;;;;;8.45;5.65;;;16.10;99.90;;;;;;5044376;28;20536;-77
2022/06/17 06:04:59;;;;;;;13.63;6.28;;;16.10;99.90;;;;;;5037841;28;20053;-77
2022/06/17 06:07:24;;;;;;;8.82;5.80;;;16.20;99.90;;;;;;5048764;28;20837;-77
2022/06/17 06:09:50;;;;;;;9.25;6.95;;;16.30;99.90;;;;;;5050309;28;20077;-77
2022/06/17 06:12:15;;;;;;;11.15;6.65;;;16.30;99.90;;;;;;5034899;28;20052;-79
2022/06/17 06:14:41;;;;;;;11.32;6.10;;;16.40;99.90;;;;;;5040016;28;20056;-80
2022/06/17 06:17:10;;;;;;;12.35;6.03;;;16.40;99.90;;;;;;5041913;28;20052;-85
2022/06/17 06:19:35;;;;;;;10.07;6.78;;;16.40;99.90;;;;;;5047091;28;20605;-83
2022/06/17 06:22:01;;;;;;;12.60;6.03;;;16.50;99.90;;;;;;5046077;28;20044;-81
2022/06/17 06:24:27;;;;;;;10.20;6.40;;;16.50;99.90;;;;;;5048407;28;20822;-81
2022/06/17 06:26:52;;;;;;;9.68;6.40;;;16.70;99.90;;;;;;5035205;28;20056;-76
2022/06/17 06:29:18;;;;;;;9.57;6.18;;;16.60;99.90;;;;;;5039757;28;20036;-79
2022/06/17 06:31:44;;;;;;;10.95;6.53;;;16.60;99.90;;;;;;5040852;28;20126;-80
2022/06/17 06:34:10;;;;;;;10.57;6.15;;;16.70;99.90;;;;;;5037470;28;20037;-82
2022/06/17 06:36:36;;;;;;;10.23;6.13;;;16.70;99.90;;;;;;5060017;28;20063;-78
2022/06/17 06:39:02;;;;;;;11.93;6.53;;;16.70;99.90;;;;;;5053453;28;20052;-77
2022/06/17 06:41:27;;;;;;;10.52;6.53;;;16.80;99.90;;;;;;5040498;28;20377;-77
2022/06/17 06:43:53;;;;;;;10.80;6.40;;;16.90;99.90;;;;;;5050715;28;20059;-77
2022/06/17 06:46:22;;;;;;;9.50;6.70;;;16.90;99.90;;;;;;5038982;28;20560;-77
2022/06/17 06:48:48;;;;;;;9.18;6.45;;;17.00;99.90;;;;;;5031482;28;20987;-77
2022/06/17 06:51:14;;;;;;;11.75;6.32;;;17.10;99.90;;;;;;5039311;28;20053;-77
2022/06/17 06:53:39;;;;;;;8.70;6.30;;;17.10;99.90;;;;;;5039973;28;20043;-78
2022/06/17 06:56:05;;;;;;;13.98;6.75;;;17.30;99.90;;;;;;5032118;28;20839;-77
2022/06/17 06:58:32;;;;;;;9.13;5.90;;;17.70;99.90;;;;;;5047089;28;20059;-77
2022/06/17 07:00:58;;;;;;;8.75;6.45;;;17.70;99.90;;;;;;5046492;28;20123;-77
2022/06/17 07:03:26;;;;;;;11.18;6.65;;;17.70;99.90;;;;;;5020299;28;20045;-78
2022/06/17 07:05:55;;;;;;;10.32;6.30;;;17.90;99.90;;;;;;5025245;28;20825;-78
2022/06/17 07:08:24;;;;;;;13.10;5.95;;;18.00;99.90;;;;;;5036424;28;20595;-78
2022/06/17 07:10:54;;;;;;;12.77;6.20;;;18.00;99.90;;;;;;5038433;28;20057;-78
2022/06/17 07:13:22;;;;;;;12.38;5.68;;;18.10;99.90;;;;;;5057671;28;20083;-78
2022/06/17 07:15:49;;;;;;;11.80;5.57;;;18.20;99.90;;;;;;5022932;28;20053;-78
2022/06/17 07:18:18;;;;;;;8.68;6.57;;;18.50;99.90;;;;;;5018037;28;20080;-78
2022/06/17 07:20:51;;;;;;;13.45;6.28;;;18.50;99.90;;;;;;5019785;28;20049;-78
2022/06/17 07:23:22;;;;;;;12.40;6.28;;;18.70;99.90;;;;;;5031802;28;20045;-78
2022/06/17 07:25:48;;;;;;;9.85;5.80;;;18.70;99.90;;;;;;5039341;28;20048;-78
2022/06/17 07:28:17;;;;;;;8.00;5.78;;;18.80;99.90;;;;;;5040732;28;20636;-78
2022/06/17 07:30:45;;;;;;;9.02;6.32;;;18.90;99.90;;;;;;5044288;28;20056;-78
2022/06/17 07:33:11;;;;;;;10.98;6.25;;;18.90;99.90;;;;;;5019079;28;20041;-78
2022/06/17 07:35:38;;;;;;;9.85;5.50;;;19.00;99.90;;;;;;5027944;28;20056;-78
2022/06/17 07:40:48;;;;;;;10.65;6.18;;;19.10;99.90;;;;;;5035194;28;20066;-78
2022/06/17 07:43:18;;;;;;;8.82;5.72;;;19.20;99.90;;;;;;5038979;28;20465;-78
2022/06/17 07:45:44;;;;;;;11.48;5.95;;;19.30;99.90;;;;;;5023819;28;20475;-78
2022/06/17 07:48:12;;;;;;;9.95;5.90;;;19.40;99.90;;;;;;5024844;28;20140;-78
2022/06/17 07:50:38;;;;;;;8.50;5.95;;;19.50;99.90;;;;;;5041400;28;20579;-78
2022/06/17 07:53:04;;;;;;;11.07;6.05;;;19.70;99.90;;;;;;5016907;28;20115;-78
2022/06/17 07:55:30;;;;;;;9.40;5.65;;;19.80;99.90;;;;;;5037510;28;20048;-78
2022/06/17 07:57:56;;;;;;;11.40;5.85;;;20.00;99.90;;;;;;5037841;28;20127;-78
2022/06/17 08:00:26;;;;;;;8.20;5.47;;;20.20;99.90;;;;;;5029154;28;20087;-78
2022/06/17 08:02:52;;;;;;;9.23;5.70;;;20.40;99.90;;;;;;5029820;28;20041;-78
2022/06/17 08:05:18;;;;;;;6.90;4.50;;;20.40;99.90;;;;;;5037935;28;20099;-78
2022/06/17 08:07:44;;;;;;;10.85;4.88;;;20.70;99.90;;;;;;5037106;28;20045;-78
2022/06/17 08:10:14;;;;;;;13.77;5.18;;;20.80;99.90;;;;;;5036968;28;20823;-78
2022/06/17 08:12:40;;;;;;;9.65;5.13;;;20.90;99.90;;;;;;5018324;28;20774;-78
2022/06/17 08:15:06;;;;;;;12.05;4.82;;;21.10;99.90;;;;;;5038615;28;20130;-78
2022/06/17 08:17:32;;;;;;;11.48;5.40;;;21.10;99.90;;;;;;5037989;28;20050;-78
2022/06/17 08:19:58;;;;;;;6.72;4.65;;;21.20;99.90;;;;;;5039738;28;20067;-78
2022/06/17 08:22:25;;;;;;;9.55;5.10;;;21.30;99.90;;;;;;5036129;28;20053;-78
2022/06/17 08:24:56;;;;;;;9.93;4.88;;;21.30;99.90;;;;;;5038965;28;20169;-78
2022/06/17 08:27:22;;;;;;;8.23;4.43;;;21.30;99.90;;;;;;5041082;28;20571;-78
2022/06/17 08:29:47;;;;;;;8.02;5.22;;;21.40;99.90;;;;;;5031558;28;20041;-78
2022/06/17 08:34:58;;;;;;;;;;;21.40;99.90;;;;;;5052431;28;20048;-79
2022/06/17 08:37:23;;;;;;;10.35;4.50;;;21.60;99.90;;;;;;5062791;28;20451;-80
2022/06/17 08:39:51;;;;;;;8.75;4.43;;;21.80;99.90;;;;;;5058780;28;20055;-79
2022/06/17 08:42:31;;;;;;;8.68;5.03;;;22.10;99.90;;;;;;5033815;28;20041;-79
2022/06/17 08:45:17;;;;;;;10.15;4.93;;;22.40;99.90;;;;;;5041824;28;20052;-80
2022/06/17 08:48:24;;;;;;;9.13;4.50;;;22.60;99.90;;;;;;5039662;28;20145;-79
2022/06/17 08:51:00;;;;;;;7.20;4.65;;;22.80;99.90;;;;;;5019481;28;20056;-79
2022/06/17 08:53:55;;;;;;;7.35;3.88;;;23.00;99.90;;;;;;5056115;28;20105;-79
2022/06/17 08:56:27;;;;;;;;;;;23.00;99.90;;;;;;5034514;28;20775;-80
2022/06/17 08:58:56;;;;;;;7.53;3.97;;;23.00;99.90;;;;;;5040716;28;19925;-79
2022/06/17 09:01:44;;;;;;;9.23;4.22;;;22.90;99.40;;;;;;5042001;28;20041;-79
2022/06/17 09:04:54;;;;;;;8.77;3.60;;;22.90;99.50;;;;;;5040002;28;20041;-80
2022/06/17 09:07:35;;;;;;;10.10;4.03;;;22.80;99.30;;;;;;5040851;28;20049;-80
2022/06/17 09:10:14;;;;;;;7.60;4.55;;;22.80;99.10;;;;;;5030171;28;20049;-80
2022/06/17 09:13:11;;;;;;;7.90;4.20;;;22.80;99.10;;;;;;5033555;28;20041;-80
2022/06/17 09:15:41;;;;;;;7.82;3.95;;;22.70;99.20;;;;;;5029738;28;20147;-80
2022/06/17 09:18:37;;;;;;;8.77;4.63;;;22.70;99.60;;;;;;5042744;28;20533;-80
2022/06/17 09:21:30;;;;;;;9.95;4.30;;;22.70;99.20;;;;;;5024268;28;20114;-81
2022/06/17 09:23:59;;;;;;;9.25;4.90;;;22.70;99.40;;;;;;5038808;28;20848;-81
2022/06/17 09:26:29;;;;;;;10.05;5.38;;;22.70;99.40;;;;;;5021263;28;20258;-80
2022/06/17 09:28:59;;;;;;;10.70;5.22;;;22.70;98.80;;;;;;5020083;28;20063;-80
2022/06/17 09:31:36;;;;;;;7.65;4.55;;;22.70;98.80;;;;;;5024958;28;20115;-80
2022/06/17 09:34:12;;;;;;;11.05;5.65;;;22.70;98.90;;;;;;5039470;28;20507;-80
2022/06/17 09:36:50;;;;;;;8.07;4.72;;;22.70;98.80;;;;;;5035742;28;20041;-79
2022/06/17 09:39:55;;;;;;;9.27;5.60;;;22.70;99.10;;;;;;5042143;28;20060;-79
2022/06/17 09:42:28;;;;;;;;;;;22.70;98.90;;;;;;5022581;28;20061;-79
2022/06/17 09:45:09;;;;;;;13.77;6.22;;;22.70;99.20;;;;;;5035471;28;19931;-79
2022/06/17 09:47:44;;;;;;;10.63;5.78;;;22.70;99.00;;;;;;5021229;28;20065;-80
2022/06/17 09:50:19;;;;;;;11.43;6.53;;;22.60;99.10;;;;;;5032175;28;20091;-80
2022/06/17 09:52:52;;;;;;;10.35;5.78;;;22.70;99.20;;;;;;5040470;28;20512;-80
2022/06/17 09:55:35;;;;;;;13.43;6.78;;;22.80;99.00;;;;;;5058991;28;20432;-80
2022/06/17 09:58:16;;;;;;;9.50;6.72;;;23.00;98.70;;;;;;5039400;28;20160;-80
2022/06/17 10:00:47;;;;;;;8.02;5.25;;;23.20;99.00;;;;;;5025450;28;20041;-80
2022/06/17 10:03:19;;;;;;;9.23;5.88;;;23.50;99.10;;;;;;5028231;28;20052;-80
2022/06/17 10:05:52;;;;;;;12.40;5.72;;;23.60;98.20;;;;;;5037650;28;20045;-80
2022/06/17 10:08:18;;;;;;;7.47;4.72;;;23.70;98.00;;;;;;5033125;28;20053;-80
2022/06/17 10:11:03;;;;;;;8.93;4.80;;;23.80;97.80;;;;;;5044331;28;20363;-80
2022/06/17 10:13:41;;;;;;;8.98;4.78;;;23.80;97.60;;;;;;5060421;28;20044;-77
2022/06/17 10:19:17;;;;;;;7.60;4.22;;;23.70;97.10;;;;;;5020193;28;20487;-77
2022/06/17 10:21:49;;;;;;;;;;;23.80;97.60;;;;;;5039709;28;20056;-77
2022/06/17 10:24:27;;;;;;;5.55;3.03;;;23.80;97.20;;;;;;5035985;28;19924;-77
2022/06/17 10:27:32;;;;;;;7.22;3.40;;;23.80;97.60;;;;;;5019846;28;20049;-77
2022/06/17 10:29:58;;;;;;;;;;;23.90;97.30;;;;;;5024900;28;20439;-78
2022/06/17 10:32:25;;;;;;;9.90;3.65;;;23.90;97.00;;;;;;5041415;28;19930;-77
2022/06/17 10:34:55;;;;;;;10.15;4.10;;;23.80;97.00;;;;;;5038514;28;20079;-78
2022/06/17 10:37:21;;;;;;;5.45;3.40;;;23.80;97.00;;;;;;5058632;28;20054;-81
2022/06/17 10:39:47;;;;;;;12.27;4.13;;;23.70;96.70;;;;;;5038238;28;20041;-81
2022/06/17 10:42:15;;;;;;;13.85;4.40;;;23.60;96.80;;;;;;5036082;28;20049;-80
2022/06/17 10:44:45;;;;;;;9.35;4.03;;;23.60;96.80;;;;;;5044716;28;20036;-80
2022/06/17 10:47:39;;;;;;;7.80;3.95;;;23.60;97.00;;;;;;5049728;28;20091;-80
2022/06/17 10:50:18;;;;;;;8.18;3.72;;;23.60;96.30;;;;;;5048572;28;20057;-80
2022/06/17 10:53:06;;;;;;;8.27;3.92;;;23.80;96.40;;;;;;5039633;28;20041;-81
2022/06/17 10:55:37;;;;;;;8.00;3.47;;;23.80;96.70;;;;;;5025830;28;20056;-80
2022/06/17 10:58:18;;;;;;;8.85;4.00;;;23.90;96.70;;;;;;5052897;28;20044;-80
2022/06/17 11:01:02;;;;;;;10.52;4.60;;;24.10;96.60;;;;;;5049312;28;20462;-80
2022/06/17 11:03:41;;;;;;;8.48;4.10;;;24.20;95.90;;;;;;5045437;28;20071;-77
2022/06/17 11:06:09;;;;;;;9.20;3.90;;;24.30;96.00;;;;;;5052704;28;20830;-77
2022/06/17 11:08:52;;;;;;;8.98;3.88;;;24.40;96.10;;;;;;5040097;28;20155;-77
2022/06/17 11:12:03;;;;;;;10.68;4.20;;;24.50;96.10;;;;;;5045003;28;20049;-77
2022/06/17 11:14:44;;;;;;;7.10;3.08;;;24.60;95.50;;;;;;5057943;28;20045;-77
2022/06/17 11:17:29;;;;;;;9.95;4.10;;;24.70;96.00;;;;;;5041282;28;20153;-78
2022/06/17 11:19:59;;;;;;;8.57;4.07;;;24.80;95.70;;;;;;5048584;28;20060;-78
2022/06/17 11:22:40;;;;;;;10.02;4.38;;;24.80;95.90;;;;;;5037469;28;20579;-78
2022/06/17 11:25:20;;;;;;;8.00;4.57;;;24.90;95.40;;;;;;5037486;28;20053;-77
2022/06/17 11:27:57;;;;;;;9.98;4.20;;;24.90;94.70;;;;;;5026446;28;20107;-78
2022/06/17 11:30:30;;;;;;;11.10;3.75;;;24.90;95.30;;;;;;5035576;28;20055;-78
2022/06/17 11:32:57;;;;;;;6.07;3.63;;;24.90;95.70;;;;;;5044448;28;20052;-78
2022/06/17 11:35:32;;;;;;;6.75;4.03;;;24.90;95.80;;;;;;5019513;28;20508;-78
2022/06/17 11:37:58;;;;;;;;;;;24.90;95.10;;;;;;5025068;28;20424;-82
2022/06/17 11:40:27;;;;;;;6.65;3.83;;;25.00;94.80;;;;;;5033484;28;20002;-83
2022/06/17 11:43:03;;;;;;;8.73;3.50;;;24.90;95.00;;;;;;5045409;28;20051;-78
2022/06/17 11:45:31;;;;;;;9.32;3.95;;;25.00;94.70;;;;;;5033201;28;20160;-80
2022/06/17 11:48:19;;;;;;;7.90;3.72;;;25.00;94.90;;;;;;5053057;28;20064;-79
2022/06/17 11:51:12;;;;;;;7.93;3.83;;;25.00;94.80;;;;;;5036598;28;20135;-79
2022/06/17 11:53:54;;;;;;;6.78;3.88;;;25.10;95.10;;;;;;5039716;28;20056;-79
2022/06/17 11:56:38;;;;;;;8.70;3.70;;;25.30;94.80;;;;;;5029889;28;20049;-78
2022/06/17 11:59:17;;;;;;;7.38;3.60;;;25.50;94.00;;;;;;5036855;28;20095;-79
2022/06/17 12:02:06;;;;;;;11.68;4.18;;;25.70;94.20;;;;;;5032273;28;20048;-79
2022/06/17 12:04:34;;;;;;;10.60;3.60;;;25.90;93.80;;;;;;5038907;28;20080;-79
2022/06/17 12:07:00;;;;;;;8.70;4.22;;;26.10;93.30;;;;;;5022227;28;20576;-79
2022/06/17 12:09:25;;;;;;;8.73;4.35;;;26.20;92.80;;;;;;5020116;28;20061;-79
2022/06/17 12:11:55;;;;;;;7.05;4.22;;;26.20;92.60;;;;;;5028780;28;20123;-78
2022/06/17 12:14:33;;;;;;;7.55;3.58;;;26.20;92.70;;;;;;5037930;28;20044;-80
2022/06/17 12:16:59;;;;;;;5.88;3.78;;;26.20;92.90;;;;;;5019853;28;20132;-79
2022/06/17 12:19:25;;;;;;;8.80;4.10;;;26.20;93.10;;;;;;5036873;28;20043;-80
2022/06/17 12:22:14;;;;;;;9.50;4.38;;;26.30;92.50;;;;;;5039105;28;20123;-79
2022/06/17 12:24:42;;;;;;;6.40;3.92;;;26.30;92.00;;;;;;5031207;28;20057;-79
2022/06/17 12:27:24;;;;;;;7.50;3.50;;;26.50;92.30;;;;;;5045622;28;20531;-80
2022/06/17 12:30:06;;;;;;;5.60;3.15;;;26.50;92.20;;;;;;5016725;28;20069;-80
2022/06/17 12:32:47;;;;;;;6.30;3.35;;;26.60;92.20;;;;;;5034258;28;20045;-80
2022/06/17 12:35:42;;;;;;;5.07;3.05;;;26.70;91.20;;;;;;5023688;28;20052;-80
2022/06/17 12:38:52;;;;;;;6.70;3.30;;;26.70;91.60;;;;;;5036123;28;20041;-74
2022/06/17 12:41:21;;;;;;;5.20;3.00;;;26.70;90.20;;;;;;4997298;28;20522;-81
2022/06/17 12:44:15;;;;;;;10.95;3.00;;;26.70;90.20;;;;;;5014881;28;20053;-80
2022/06/17 12:46:47;;;;;;;7.57;3.22;;;26.80;90.20;;;;;;5029469;28;20101;-80
2022/06/17 12:53:17;;;;;;;6.47;3.45;;;26.90;88.50;;;;;;5032987;28;20057;-80
2022/06/17 12:56:04;;;;;;;7.13;3.53;;;26.90;89.80;;;;;;5043983;28;20059;-79
2022/06/17 12:59:03;;;;;;;7.65;3.70;;;27.00;87.40;;;;;;5027469;28;20045;-80
2022/06/17 13:01:35;;;;;;;6.78;3.08;;;27.10;87.80;;;;;;5037609;28;20514;-79
2022/06/17 13:04:16;;;;;;;8.63;4.05;;;27.10;87.50;;;;;;5026137;28;20056;-81
2022/06/17 13:06:48;;;;;;;9.73;3.70;;;27.10;87.50;;;;;;5024108;28;20045;-80
2022/06/17 13:09:35;;;;;;;8.38;3.20;;;27.10;86.00;;;;;;5021191;28;20053;-82
2022/06/17 13:12:06;;;;;;;6.47;3.10;;;27.10;85.30;;;;;;5021788;28;20103;-81
2022/06/17 13:14:59;;;;;;;10.07;3.28;;;27.20;86.70;;;;;;5032120;28;20076;-82
2022/06/17 13:17:50;;;;;;;7.30;3.33;;;27.30;87.20;;;;;;5041058;28;20111;-82
2022/06/17 13:20:48;;;;;;;10.13;3.70;;;27.40;85.00;;;;;;5049032;28;20083;-81
2022/06/17 13:23:23;;;;;;;8.02;3.50;;;27.40;86.00;;;;;;5050560;28;20041;-80
2022/06/17 13:26:08;;;;;;;7.35;3.90;;;27.40;86.10;;;;;;5040399;28;20642;-81
2022/06/17 13:28:47;;;;;;;8.32;3.80;;;27.20;87.60;;;;;;5029673;28;20041;-81
2022/06/17 13:31:24;;;;;;;6.72;3.58;;;27.20;86.40;;;;;;5020499;28;20788;-80